Time;durP1;ratioP1;P1;durP2;ratioP2;P2;SDS_P1;SDS_P2;PMS_P1;PMS_P2;Temp;Humidity;BMP_temperature;BMP_pressure;BME280_temperature;BME280_humidity;BME280_pressure;Samples;Min_cycle;Max_cycle;Signal;HPM_P1;HPM_P2
2021/04/07 00:02:25;;;;;;;;;;;;;;;-0.84;63.92;98707.31;5093545;28;19924;-68
2021/04/07 00:04:58;;;;;;;;;;;;;;;-0.81;64.33;98708.22;5097001;28;19924;-69
2021/04/07 00:07:26;;;;;;;;;;;;;;;-0.78;64.21;98712.47;5097377;28;20020;-69
2021/04/07 00:09:54;;;;;;;;;;;;;;;-0.77;64.01;98712.50;5097194;28;19956;-68
2021/04/07 00:12:22;;;;;;;;;;;;;;;-0.88;64.43;98713.88;5097140;28;20451;-69
2021/04/07 00:14:49;;;;;;;;;;;;;;;-0.92;64.21;98709.59;5097136;28;19931;-69
2021/04/07 00:17:17;;;;;;;;;;;;;;;-0.85;64.29;98710.59;5097092;28;20392;-69
2021/04/07 00:19:46;;;;;;;;;;;;;;;-0.75;64.55;98717.56;5097025;28;20449;-69
2021/04/07 00:22:14;;;;;;;;;;;;;;;-0.62;64.29;98714.56;5096850;28;19993;-69
2021/04/07 00:24:46;;;;;;;;;;;;;;;-0.53;64.11;98712.34;5096951;28;19932;-69
2021/04/07 00:27:14;;;;;;;;;;;;;;;-0.53;64.46;98719.88;5097248;28;19924;-69
2021/04/07 00:29:42;;;;;;;;;;;;;;;-0.56;64.08;98712.25;5096652;28;19931;-69
2021/04/07 00:32:10;;;;;;;;;;;;;;;-0.68;63.76;98705.25;5096809;28;20401;-69
2021/04/07 00:34:38;;;;;;;;;;;;;;;-0.92;63.68;98708.72;5096775;28;19924;-69
2021/04/07 00:37:06;;;;;;;;;;;;;;;-1.08;64.03;98706.59;5096722;28;20336;-69
2021/04/07 00:39:34;;;;;;;;;;;;;;;-1.14;63.68;98703.91;5096698;28;19973;-69
2021/04/07 00:42:02;;;;;;;;;;;;;;;-1.14;64.49;98701.41;5096445;28;19935;-68
2021/04/07 00:44:30;;;;;;;;;;;;;;;-1.25;64.53;98697.75;5096871;28;20377;-69
2021/04/07 00:46:57;;;;;;;;;;;;;;;-1.28;64.61;98707.66;5096553;28;20435;-69
2021/04/07 00:49:26;;;;;;;;;;;;;;;-1.32;64.34;98705.88;5096466;28;19974;-68
2021/04/07 00:51:55;;;;;;;;;;;;;;;-1.30;65.33;98704.25;5096717;28;20011;-69
2021/04/07 00:54:24;;;;;;;;;;;;;;;-1.31;65.30;98698.41;5096341;28;19963;-68
2021/04/07 00:56:53;;;;;;;;;;;;;;;-1.37;65.47;98704.06;5095122;28;19924;-68
2021/04/07 00:59:22;;;;;;;;;;;;;;;-1.44;65.21;98699.69;5095167;28;20121;-68
2021/04/07 01:01:50;;;;;;;;;;;;;;;-1.42;65.95;98694.75;5096484;28;19931;-68
2021/04/07 01:04:19;;;;;;;;;;;;;;;-1.49;66.05;98702.88;5096348;28;20023;-69
2021/04/07 01:06:47;;;;;;;;;;;;;;;-1.53;65.97;98696.91;5096099;28;20377;-69
2021/04/07 01:09:15;;;;;;;;;;;;;;;-1.50;65.65;98699.50;5096059;28;19924;-69
2021/04/07 01:11:44;;;;;;;;;;;;;;;-1.49;65.94;98700.38;5096002;28;20285;-68
2021/04/07 01:14:12;;;;;;;;;;;;;;;-1.44;65.76;98691.34;5095985;28;19936;-68
2021/04/07 01:16:39;;;;;;;;;;;;;;;-1.30;66.12;98694.25;5095350;28;20013;-68
2021/04/07 01:19:07;;;;;;;;;;;;;;;-1.23;65.56;98693.63;5095915;28;19924;-68
2021/04/07 01:21:36;;;;;;;;;;;;;;;-1.17;65.68;98696.28;5095783;28;19963;-68
2021/04/07 01:24:05;;;;;;;;;;;;;;;-1.19;65.64;98697.91;5095691;28;19971;-68
2021/04/07 01:26:32;;;;;;;;;;;;;;;-1.32;64.72;98700.88;5095718;28;20385;-68
2021/04/07 01:29:01;;;;;;;;;;;;;;;-1.54;65.29;98707.72;5095523;28;19971;-68
2021/04/07 01:31:28;;;;;;;;;;;;;;;-1.56;65.55;98711.81;5095684;28;20035;-68
2021/04/07 01:33:56;;;;;;;;;;;;;;;-1.56;65.28;98711.81;5095874;28;19930;-68
2021/04/07 01:36:24;;;;;;;;;;;;;;;-1.60;65.21;98705.03;5094360;28;19931;-69
2021/04/07 01:38:52;;;;;;;;;;;;;;;-1.64;65.78;98708.25;5095531;28;20266;-68
2021/04/07 01:41:22;;;;;;;;;;;;;;;-1.67;65.84;98707.28;5095390;28;20030;-68
2021/04/07 01:43:50;;;;;;;;;;;;;;;-1.59;65.78;98715.88;5095391;28;20019;-68
2021/04/07 01:46:18;;;;;;;;;;;;;;;-1.56;66.22;98714.31;5095664;28;19923;-68
2021/04/07 01:48:45;;;;;;;;;;;;;;;-1.54;66.29;98725.25;5095303;28;19966;-69
2021/04/07 01:51:13;;;;;;;;;;;;;;;-1.49;66.14;98726.19;5095210;28;20027;-68
2021/04/07 01:53:41;;;;;;;;;;;;;;;-1.49;66.12;98718.69;5095192;28;19981;-68
2021/04/07 01:56:10;;;;;;;;;;;;;;;-1.49;65.60;98722.88;5095220;28;19930;-68
2021/04/07 01:58:38;;;;;;;;;;;;;;;-1.61;65.60;98723.31;5095151;28;19955;-68
2021/04/07 02:01:06;;;;;;;;;;;;;;;-1.66;66.20;98719.84;5095028;28;20392;-68
2021/04/07 02:03:35;;;;;;;;;;;;;;;-1.74;65.69;98723.75;5095311;28;20031;-68
2021/04/07 02:06:02;;;;;;;;;;;;;;;-1.77;65.61;98721.16;5094952;28;19931;-68
2021/04/07 02:08:30;;;;;;;;;;;;;;;-1.70;66.45;98723.03;5093794;28;19947;-68
2021/04/07 02:10:58;;;;;;;;;;;;;;;-1.68;66.11;98721.44;5094900;28;19931;-68
2021/04/07 02:13:26;;;;;;;;;;;;;;;-1.72;65.95;98729.66;5094834;28;19924;-68
2021/04/07 02:15:54;;;;;;;;;;;;;;;-1.73;66.03;98737.97;5094778;28;19959;-69
2021/04/07 02:18:22;;;;;;;;;;;;;;;-1.74;66.03;98731.25;5094751;28;19930;-69
2021/04/07 02:20:50;;;;;;;;;;;;;;;-1.67;66.64;98735.66;5094662;28;19986;-69
2021/04/07 02:23:17;;;;;;;;;;;;;;;-1.63;66.31;98741.63;5094599;28;19931;-69
2021/04/07 02:25:45;;;;;;;;;;;;;;;-1.62;66.58;98739.16;5094567;28;19970;-69
2021/04/07 02:28:13;;;;;;;;;;;;;;;-1.59;65.95;98746.75;5094353;28;20354;-69
2021/04/07 02:30:40;;;;;;;;;;;;;;;-1.62;66.24;98744.16;5094663;28;19959;-69
2021/04/07 02:33:14;;;;;;;;;;;;;;;-1.78;65.98;98744.47;5094618;28;19928;-69
2021/04/07 02:35:41;;;;;;;;;;;;;;;-1.92;65.65;98753.13;5094475;28;19935;-69
2021/04/07 02:38:10;;;;;;;;;;;;;;;-2.02;65.84;98764.47;5094529;28;19930;-69
2021/04/07 02:40:37;;;;;;;;;;;;;;;-2.22;65.40;98760.47;5093219;28;19974;-69
2021/04/07 02:43:06;;;;;;;;;;;;;;;-2.26;65.85;98767.81;5094386;28;19924;-69
2021/04/07 02:45:33;;;;;;;;;;;;;;;-2.24;65.97;98758.72;5094270;28;19925;-69
2021/04/07 02:48:01;;;;;;;;;;;;;;;-2.26;65.83;98762.81;5093191;28;19924;-69
2021/04/07 02:50:30;;;;;;;;;;;;;;;-2.31;66.58;98757.69;5094257;28;20379;-69
2021/04/07 02:52:58;;;;;;;;;;;;;;;-2.32;66.48;98758.47;5094217;28;20321;-69
2021/04/07 02:55:26;;;;;;;;;;;;;;;-2.24;66.26;98771.22;5094190;28;19977;-69
2021/04/07 02:57:53;;;;;;;;;;;;;;;-2.28;66.50;98769.41;5093281;28;19924;-69
2021/04/07 03:00:21;;;;;;;;;;;;;;;-2.35;66.44;98777.50;5094270;28;20053;-68
2021/04/07 03:02:49;;;;;;;;;;;;;;;-2.32;67.22;98773.44;5092918;28;19931;-68
2021/04/07 03:05:17;;;;;;;;;;;;;;;-2.28;67.36;98769.41;5094126;28;20263;-68
2021/04/07 03:07:45;;;;;;;;;;;;;;;-2.25;67.32;98770.38;5094378;28;20369;-68
2021/04/07 03:10:13;;;;;;;;;;;;;;;-2.27;67.52;98778.59;5094078;28;19924;-68
2021/04/07 03:12:42;;;;;;;;;;;;;;;-2.34;66.95;98779.19;5094052;28;19953;-68
2021/04/07 03:15:10;;;;;;;;;;;;;;;-2.28;67.29;98775.25;5094037;28;19924;-68
2021/04/07 03:17:39;;;;;;;;;;;;;;;-2.25;67.17;98790.34;5093960;28;19924;-68
2021/04/07 03:20:08;;;;;;;;;;;;;;;-2.24;67.42;98786.22;5094042;28;19924;-68
2021/04/07 03:22:36;;;;;;;;;;;;;;;-2.20;67.80;98780.50;5093862;28;19964;-68
2021/04/07 03:25:05;;;;;;;;;;;;;;;-2.15;67.13;98776.53;5093913;28;20328;-68
2021/04/07 03:27:33;;;;;;;;;;;;;;;-2.23;67.72;98773.75;5093761;28;19924;-70
2021/04/07 03:30:01;;;;;;;;;;;;;;;-2.25;67.36;98775.34;5093853;28;19947;-69
2021/04/07 03:32:29;;;;;;;;;;;;;;;-2.17;67.43;98783.13;5093884;28;20301;-68
2021/04/07 03:34:57;;;;;;;;;;;;;;;-2.28;67.30;98784.41;5093821;28;19924;-68
2021/04/07 03:37:25;;;;;;;;;;;;;;;-2.30;67.78;98789.34;5093851;28;19967;-69
2021/04/07 03:39:52;;;;;;;;;;;;;;;-2.36;67.84;98788.28;5097479;28;19924;-68
2021/04/07 03:42:21;;;;;;;;;;;;;;;-2.36;67.69;98788.28;5098067;28;20388;-68
2021/04/07 03:44:48;;;;;;;;;;;;;;;-2.37;68.14;98789.91;5096537;28;19938;-68
2021/04/07 03:47:16;;;;;;;;;;;;;;;-2.28;67.69;98795.22;5097670;28;20301;-68
2021/04/07 03:49:44;;;;;;;;;;;;;;;-2.23;68.62;98800.41;5097666;28;19924;-68
2021/04/07 03:52:12;;;;;;;;;;;;;;;-2.22;67.75;98797.09;5097559;28;19928;-69
2021/04/07 03:54:42;;;;;;;;;;;;;;;-2.18;68.29;98803.91;5097552;28;19932;-68
2021/04/07 03:57:10;;;;;;;;;;;;;;;-2.24;68.40;98803.69;5097465;28;20029;-68
2021/04/07 03:59:39;;;;;;;;;;;;;;;-2.25;68.49;98810.34;5097464;28;19929;-68
2021/04/07 04:02:07;;;;;;;;;;;;;;;-2.24;68.06;98821.19;5097394;28;20371;-68
2021/04/07 04:04:35;;;;;;;;;;;;;;;-2.28;68.35;98819.38;5097444;28;19930;-68
2021/04/07 04:07:03;;;;;;;;;;;;;;;-2.28;68.45;98821.88;5097565;28;20373;-68
2021/04/07 04:09:30;;;;;;;;;;;;;;;-2.35;68.44;98828.28;5097290;28;20027;-68
2021/04/07 04:11:58;;;;;;;;;;;;;;;-2.35;68.60;98829.97;5097263;28;19931;-69
2021/04/07 04:14:25;;;;;;;;;;;;;;;-2.34;68.22;98829.13;5097152;28;19928;-68
2021/04/07 04:16:54;;;;;;;;;;;;;;;-2.36;68.44;98828.25;5095872;28;19973;-68
2021/04/07 04:19:22;;;;;;;;;;;;;;;-2.33;67.86;98833.34;5097047;28;19967;-68
2021/04/07 04:21:49;;;;;;;;;;;;;;;-2.32;68.08;98833.41;5096933;28;19930;-68
2021/04/07 04:24:17;;;;;;;;;;;;;;;-2.33;68.23;98845.84;5096992;28;19924;-69
2021/04/07 04:26:44;;;;;;;;;;;;;;;-2.43;68.30;98828.81;5097174;28;19989;-68
2021/04/07 04:29:12;;;;;;;;;;;;;;;-2.43;68.48;98833.81;5096591;28;20297;-68
2021/04/07 04:31:40;;;;;;;;;;;;;;;-2.32;68.61;98843.38;5095685;28;19966;-68
2021/04/07 04:34:09;;;;;;;;;;;;;;;-2.30;68.20;98845.94;5097166;28;19977;-68
2021/04/07 04:36:36;;;;;;;;;;;;;;;-2.34;68.25;98852.47;5096774;28;19963;-68
2021/04/07 04:39:04;;;;;;;;;;;;;;;-2.27;68.06;98856.03;5096710;28;19924;-68
2021/04/07 04:41:32;;;;;;;;;;;;;;;-2.26;67.89;98851.13;5096579;28;20404;-68
2021/04/07 04:43:59;;;;;;;;;;;;;;;-2.21;68.43;98861.28;5096653;28;19924;-68
2021/04/07 04:46:27;;;;;;;;;;;;;;;-2.16;67.84;98869.78;5096568;28;19924;-68
2021/04/07 04:48:55;;;;;;;;;;;;;;;-2.14;68.23;98875.69;5096245;28;19924;-68
2021/04/07 04:51:23;;;;;;;;;;;;;;;-2.12;68.63;98879.09;5095498;28;20451;-68
2021/04/07 04:53:51;;;;;;;;;;;;;;;-2.04;67.94;98878.56;5096408;28;19924;-68
2021/04/07 04:56:19;;;;;;;;;;;;;;;-1.91;68.13;98881.47;5096379;28;20061;-69
2021/04/07 04:58:47;;;;;;;;;;;;;;;-1.82;68.33;98879.34;5096247;28;20396;-69
2021/04/07 05:01:14;;;;;;;;;;;;;;;-1.76;67.79;98882.88;5096198;28;19924;-68
2021/04/07 05:03:42;;;;;;;;;;;;;;;-1.69;68.11;98892.28;5096150;28;19928;-68
2021/04/07 05:06:10;;;;;;;;;;;;;;;-1.61;67.60;98895.88;5096211;28;20009;-68
2021/04/07 05:08:38;;;;;;;;;;;;;;;-1.50;68.29;98887.13;5096124;28;19924;-69
2021/04/07 05:11:06;;;;;;;;;;;;;;;-1.40;68.05;98889.13;5096082;28;19931;-71
2021/04/07 05:13:34;;;;;;;;;;;;;;;-1.32;67.63;98891.91;5096072;28;19931;-69
2021/04/07 05:16:02;;;;;;;;;;;;;;;-1.22;67.81;98893.88;5095808;28;19928;-69
2021/04/07 05:18:29;;;;;;;;;;;;;;;-1.13;67.85;98898.34;5095515;28;19970;-69
2021/04/07 05:20:57;;;;;;;;;;;;;;;-1.11;67.85;98902.59;5096084;28;19946;-69
2021/04/07 05:23:25;;;;;;;;;;;;;;;-1.08;67.58;98907.69;5095900;28;19931;-69
2021/04/07 05:25:54;;;;;;;;;;;;;;;-1.06;67.22;98906.09;5095787;28;20352;-70
2021/04/07 05:28:21;;;;;;;;;;;;;;;-1.06;67.26;98910.25;5095545;28;20007;-69
2021/04/07 05:33:27;;;;;;;;;;;;;;;-1.04;67.38;98923.66;5095997;28;19924;-69
2021/04/07 05:35:55;;;;;;;;;;;;;;;-1.01;67.05;98928.78;5095862;28;19931;-70
2021/04/07 05:38:23;;;;;;;;;;;;;;;-0.91;66.97;98935.78;5094412;28;19924;-69
2021/04/07 05:40:52;;;;;;;;;;;;;;;-0.85;66.96;98936.81;5095572;28;19928;-70
2021/04/07 05:43:21;;;;;;;;;;;;;;;-0.72;66.98;98920.53;5095643;28;19978;-70
2021/04/07 05:45:49;;;;;;;;;;;;;;;-0.54;66.66;98928.59;5095252;28;19924;-70
2021/04/07 05:48:17;;;;;;;;;;;;;;;-0.38;66.36;98920.75;5094203;28;19928;-70
2021/04/07 05:50:46;;;;;;;;;;;;;;;-0.22;65.98;98914.53;5095275;28;19924;-71
2021/04/07 05:53:13;;;;;;;;;;;;;;;-0.07;65.84;98918.31;5095260;28;19950;-70
2021/04/07 05:55:43;;;;;;;;;;;;;;;0.13;65.52;98931.44;5095123;28;19935;-71
2021/04/07 05:58:11;;;;;;;;;;;;;;;0.35;65.13;98927.84;5095211;28;19970;-71
2021/04/07 06:00:40;;;;;;;;;;;;;;;0.51;65.14;98929.97;5094700;28;20317;-71
2021/04/07 06:03:08;;;;;;;;;;;;;;;0.63;64.91;98931.13;5095298;28;19927;-70
2021/04/07 06:05:37;;;;;;;;;;;;;;;0.77;64.76;98935.69;5095381;28;19924;-70
2021/04/07 06:08:05;;;;;;;;;;;;;;;0.90;64.25;98923.47;5094957;28;19924;-71
2021/04/07 06:10:34;;;;;;;;;;;;;;;1.08;63.71;98926.41;5094924;28;19924;-71
2021/04/07 06:13:01;;;;;;;;;;;;;;;1.25;63.30;98925.16;5095211;28;20323;-71
2021/04/07 06:15:29;;;;;;;;;;;;;;;1.38;63.50;98926.31;5094751;28;19924;-71
2021/04/07 06:18:00;;;;;;;;;;;;;;;1.39;62.82;98927.16;5094801;28;19928;-71
2021/04/07 06:20:29;;;;;;;;;;;;;;;1.42;63.11;98927.22;5094779;28;20381;-71
2021/04/07 06:22:57;;;;;;;;;;;;;;;1.53;63.50;98926.66;5094501;28;19931;-71
2021/04/07 06:25:26;;;;;;;;;;;;;;;1.70;63.55;98929.53;5094555;28;20396;-71
2021/04/07 06:27:54;;;;;;;;;;;;;;;1.88;63.72;98929.94;5094337;28;21591;-71
2021/04/07 06:30:24;;;;;;;;;;;;;;;2.03;63.98;98940.31;5093792;28;19930;-71
2021/04/07 06:32:52;;;;;;;;;;;;;;;2.21;63.90;98940.69;5093670;28;19924;-71
2021/04/07 06:35:20;;;;;;;;;;;;;;;2.42;63.74;98943.66;5093732;28;19933;-71
2021/04/07 06:37:49;;;;;;;;;;;;;;;2.63;62.76;98941.53;5093527;28;19931;-71
2021/04/07 06:40:17;;;;;;;;;;;;;;;2.88;62.20;98952.06;5093562;28;19928;-72
2021/04/07 06:42:45;;;;;;;;;;;;;;;3.10;62.70;98954.09;5093494;28;19927;-71
2021/04/07 06:45:13;;;;;;;;;;;;;;;3.30;61.88;98957.81;5092311;28;19932;-71
2021/04/07 06:47:41;;;;;;;;;;;;;;;3.54;61.55;98959.88;5093403;28;19924;-71
2021/04/07 06:50:09;;;;;;;;;;;;;;;3.73;61.05;98949.22;5092520;28;19924;-71
2021/04/07 06:52:38;;;;;;;;;;;;;;;3.88;60.89;98945.25;5093406;28;20378;-71
2021/04/07 06:55:07;;;;;;;;;;;;;;;3.99;60.41;98948.75;5093293;28;19930;-71
2021/04/07 06:57:35;;;;;;;;;;;;;;;4.15;60.09;98954.03;5093245;28;19952;-71
2021/04/07 07:00:05;;;;;;;;;;;;;;;4.26;59.79;98952.47;5093641;28;19924;-71
2021/04/07 07:02:34;;;;;;;;;;;;;;;4.46;59.46;98948.50;5093215;28;20374;-71
2021/04/07 07:05:02;;;;;;;;;;;;;;;4.59;58.65;98951.19;5092009;28;20390;-71
2021/04/07 07:07:31;;;;;;;;;;;;;;;4.74;58.59;98946.31;5092015;28;19924;-71
2021/04/07 07:09:59;;;;;;;;;;;;;;;4.87;58.09;98951.47;5093202;28;19924;-71
2021/04/07 07:12:31;;;;;;;;;;;;;;;4.91;56.92;98951.53;5093169;28;19924;-71
2021/04/07 07:15:02;;;;;;;;;;;;;;;4.93;56.46;98957.44;5096561;28;20377;-71
2021/04/07 07:17:32;;;;;;;;;;;;;;;4.89;56.11;98953.19;5096742;28;19931;-70
2021/04/07 07:19:59;;;;;;;;;;;;;;;4.93;56.08;98959.97;5095700;28;20397;-71
2021/04/07 07:22:28;;;;;;;;;;;;;;;5.02;55.25;98955.00;5096597;28;19928;-71
2021/04/07 07:24:58;;;;;;;;;;;;;;;5.09;54.94;98964.31;5096557;28;19924;-71
2021/04/07 07:30:15;;;;;;;;;;;;;;;5.30;54.39;98949.34;5132906;27;19915;-72
2021/04/07 07:32:43;;;;;;;;;;;;;;;5.28;53.70;98956.06;5132502;28;19923;-72
2021/04/07 07:35:12;;;;;;;;;;;;;;;5.35;53.63;98955.28;5132255;28;19924;-71
2021/04/07 07:37:40;;;;;;;;;;;;;;;5.49;53.49;98957.09;5132207;27;19923;-71
2021/04/07 07:40:20;;;;;;;;;;;;;;;5.66;53.05;98955.53;5132083;28;20011;-72
2021/04/07 07:42:48;;;;;;;;;;;;;;;5.91;52.88;98962.47;5132176;27;19932;-72
2021/04/07 07:45:24;;;;;;;;;;;;;;;5.91;52.10;98957.41;5131981;27;19934;-72
2021/04/07 07:48:03;;;;;;;;;;;;;;;5.71;51.61;98971.59;5131085;28;20038;-71
2021/04/07 07:50:34;;;;;;;;;;;;;;;5.93;51.83;98968.38;5130820;28;19955;-72
2021/04/07 07:53:13;;;;;;;;;;;;;;;6.04;51.04;98975.22;5131876;27;20400;-72
2021/04/07 07:55:42;;;;;;;;;;;;;;;5.92;50.96;98984.44;5131878;27;20297;-71
2021/04/07 07:58:09;;;;;;;;;;;;;;;5.84;50.83;98980.97;5131706;27;19923;-71
2021/04/07 08:00:38;;;;;;;;;;;;;;;5.78;50.48;98991.88;5131719;28;19924;-71
2021/04/07 08:03:07;;;;;;;;;;;;;;;5.69;50.52;98990.97;5131542;28;19927;-71
2021/04/07 08:05:36;;;;;;;;;;;;;;;5.48;50.30;98995.88;5130435;28;19976;-71
2021/04/07 08:08:04;;;;;;;;;;;;;;;5.36;50.22;98991.56;5131460;27;19927;-71
2021/04/07 08:10:32;;;;;;;;;;;;;;;5.47;50.98;98994.19;5131518;27;19982;-71
2021/04/07 08:13:00;;;;;;;;;;;;;;;5.52;50.00;98987.50;5131473;28;19947;-71
2021/04/07 08:15:29;;;;;;;;;;;;;;;5.53;49.87;98999.28;5131321;27;19931;-71
2021/04/07 08:17:58;;;;;;;;;;;;;;;5.67;50.64;98997.72;5131301;28;20284;-71
2021/04/07 08:20:26;;;;;;;;;;;;;;;5.80;50.69;98999.50;5131298;27;20335;-71
2021/04/07 08:22:54;;;;;;;;;;;;;;;5.76;49.63;99005.41;5130115;28;19927;-71
2021/04/07 08:25:22;;;;;;;;;;;;;;;5.59;49.23;99009.47;5131307;28;20388;-71
2021/04/07 08:27:50;;;;;;;;;;;;;;;5.55;49.38;99013.66;5131031;27;19931;-72
2021/04/07 08:30:19;;;;;;;;;;;;;;;5.60;49.37;99006.09;5130055;28;19923;-71
2021/04/07 08:32:48;;;;;;;;;;;;;;;5.85;50.21;99010.56;5129933;28;20369;-72
2021/04/07 08:35:19;;;;;;;;;;;;;;;6.31;50.08;99009.97;5131452;28;19959;-72
2021/04/07 08:37:56;;;;;;;;;;;;;;;6.80;49.68;99007.66;5131112;27;19928;-72
2021/04/07 08:40:24;;;;;;;;;;;;;;;6.91;49.36;99008.56;5124263;28;19930;-71
2021/04/07 08:42:52;;;;;;;;;;;;;;;6.72;48.23;99011.00;5117637;28;19931;-72
2021/04/07 08:45:20;;;;;;;;;;;;;;;6.35;47.14;99011.72;5117230;28;20378;-71
2021/04/07 08:47:54;;;;;;;;;;;;;;;6.14;47.45;99021.72;5117237;28;19928;-71
2021/04/07 08:50:28;;;;;;;;;;;;;;;6.00;47.58;99019.09;5117108;28;20011;-71
2021/04/07 08:52:56;;;;;;;;;;;;;;;6.01;48.14;99025.00;5116278;28;19935;-71
2021/04/07 08:55:26;;;;;;;;;;;;;;;5.98;48.03;99024.97;5117013;28;19985;-71
2021/04/07 08:58:01;;;;;;;;;;;;;;;5.95;48.25;99030.88;5117043;28;20293;-71
2021/04/07 09:00:29;;;;;;;;;;;;;;;5.88;47.95;99023.22;5117038;28;19927;-72
2021/04/07 09:02:58;;;;;;;;;;;;;;;5.87;48.06;99026.59;5117201;28;19924;-72
2021/04/07 09:05:33;;;;;;;;;;;;;;;5.92;47.65;99030.00;5116853;28;19935;-71
2021/04/07 09:08:01;;;;;;;;;;;;;;;6.08;48.28;99029.28;5116808;28;20425;-71
2021/04/07 09:10:40;;;;;;;;;;;;;;;6.49;48.15;99020.22;5115679;28;19930;-72
2021/04/07 09:13:09;;;;;;;;;;;;;;;6.64;47.53;99020.31;5116796;28;20324;-71
2021/04/07 09:15:46;;;;;;;;;;;;;;;6.81;47.16;99033.03;5116682;28;19931;-71
2021/04/07 09:18:15;;;;;;;;;;;;;;;6.85;47.19;99033.88;5116660;27;19923;-71
2021/04/07 09:20:45;;;;;;;;;;;;;;;7.00;46.75;99032.25;5116877;28;19931;-71
2021/04/07 09:23:25;;;;;;;;;;;;;;;6.92;46.16;99035.59;5116535;28;20370;-71
2021/04/07 09:25:54;;;;;;;;;;;;;;;6.77;45.48;99043.16;5116903;28;19931;-71
2021/04/07 09:28:33;;;;;;;;;;;;;;;6.64;46.07;99038.03;5116123;27;19959;-71
2021/04/07 09:31:07;;;;;;;;;;;;;;;6.47;45.61;99037.13;5116544;28;20327;-71
2021/04/07 09:33:36;;;;;;;;;;;;;;;6.27;45.97;99037.81;5116365;28;20121;-72
2021/04/07 09:36:06;;;;;;;;;;;;;;;6.25;46.37;99039.50;5116287;28;19932;-71
2021/04/07 09:38:37;;;;;;;;;;;;;;;6.22;46.12;99034.41;5116369;28;19927;-71
2021/04/07 09:41:07;;;;;;;;;;;;;;;6.31;46.92;99037.03;5116163;28;19924;-72
2021/04/07 09:43:35;;;;;;;;;;;;;;;6.45;46.50;99036.25;5116232;28;20354;-72
2021/04/07 09:46:04;;;;;;;;;;;;;;;6.54;46.54;99038.84;5116071;28;20275;-71
2021/04/07 09:48:38;;;;;;;;;;;;;;;6.51;45.76;99037.97;5115926;28;19930;-72
2021/04/07 09:51:26;;;;;;;;;;;;;;;6.58;45.45;99035.47;5115505;28;20014;-71
2021/04/07 09:54:10;;;;;;;;;;;;;;;7.00;45.60;99033.94;5114620;28;20370;-72
2021/04/07 09:56:48;;;;;;;;;;;;;;;7.09;44.75;99026.34;5115142;28;19924;-72
2021/04/07 09:59:16;;;;;;;;;;;;;;;7.00;44.68;99031.41;5115895;28;19959;-72
2021/04/07 10:01:44;;;;;;;;;;;;;;;6.82;44.37;99038.94;5114748;28;19930;-71
2021/04/07 10:04:12;;;;;;;;;;;;;;;6.59;44.31;99044.78;5115506;28;20372;-71
2021/04/07 10:06:41;;;;;;;;;;;;;;;6.54;45.02;99038.84;5115717;28;20026;-71
2021/04/07 10:09:10;;;;;;;;;;;;;;;6.53;45.25;99042.19;5115616;28;20295;-72
2021/04/07 10:11:39;;;;;;;;;;;;;;;6.46;45.41;99045.53;5115553;28;19924;-71
2021/04/07 10:14:07;;;;;;;;;;;;;;;6.46;45.53;99053.16;5114291;28;20399;-71
2021/04/07 10:16:36;;;;;;;;;;;;;;;6.49;45.70;99055.72;5114218;28;19930;-72
2021/04/07 10:19:08;;;;;;;;;;;;;;;6.34;45.56;99064.91;5115441;28;19969;-71
2021/04/07 10:21:36;;;;;;;;;;;;;;;6.31;45.93;99054.75;5115846;28;19923;-72
2021/04/07 10:24:06;;;;;;;;;;;;;;;6.44;46.74;99066.66;5115277;28;19928;-71
2021/04/07 10:26:40;;;;;;;;;;;;;;;6.65;46.99;99066.75;5114159;28;19924;-72
2021/04/07 10:29:08;;;;;;;;;;;;;;;7.03;46.52;99069.47;5115122;28;19924;-71
2021/04/07 10:31:36;;;;;;;;;;;;;;;7.49;46.29;99066.19;5115137;28;19924;-72
2021/04/07 10:34:05;;;;;;;;;;;;;;;7.78;46.76;99064.53;5115158;28;19923;-72
2021/04/07 10:36:32;;;;;;;;;;;;;;;8.10;45.72;99055.22;5115136;28;19924;-72
2021/04/07 10:39:10;;;;;;;;;;;;;;;8.19;45.53;99056.03;5115087;28;20022;-72
2021/04/07 10:41:40;;;;;;;;;;;;;;;8.13;44.92;99057.72;5115043;28;19959;-72
2021/04/07 10:44:07;;;;;;;;;;;;;;;7.93;43.86;99059.47;5115003;28;19924;-72
2021/04/07 10:46:35;;;;;;;;;;;;;;;7.96;43.22;99063.69;5114899;28;19927;-72
2021/04/07 10:49:03;;;;;;;;;;;;;;;8.03;43.79;99066.25;5114982;28;19927;-72
2021/04/07 10:51:31;;;;;;;;;;;;;;;7.86;43.80;99067.06;5114870;28;19966;-72
2021/04/07 10:54:00;;;;;;;;;;;;;;;7.68;43.57;99072.97;5114754;28;19924;-72
2021/04/07 10:56:30;;;;;;;;;;;;;;;7.54;43.33;99069.59;5114779;28;20293;-72
2021/04/07 10:59:01;;;;;;;;;;;;;;;7.38;43.77;99088.19;5114694;28;19928;-71
2021/04/07 11:01:29;;;;;;;;;;;;;;;7.23;44.77;99083.06;5113682;28;20330;-72
2021/04/07 11:04:11;;;;;;;;;;;;;;;7.13;45.57;99086.41;5114498;28;19924;-71
2021/04/07 11:06:38;;;;;;;;;;;;;;;7.10;46.85;99094.03;5114629;27;19927;-71
2021/04/07 11:09:07;;;;;;;;;;;;;;;7.18;46.80;99094.88;5114560;28;20014;-71
2021/04/07 11:11:39;;;;;;;;;;;;;;;7.51;46.82;99083.97;5114617;28;20018;-72
2021/04/07 11:14:08;;;;;;;;;;;;;;;8.15;47.43;99080.63;5113487;28;19927;-72
2021/04/07 11:16:36;;;;;;;;;;;;;;;8.42;45.64;99070.44;5113482;28;19934;-72
2021/04/07 12:56:49;;;;;;;;;;;;;;;9.36;38.43;99081.09;4113333;29;19929;-66
2021/04/07 12:59:17;;;;;;;;;;;;;;;9.55;36.95;99081.81;4827249;29;20475;-66
2021/04/07 13:01:44;;;;;;;;;;;;;;;9.90;36.55;99076.50;4827352;29;19935;-65
2021/04/07 13:04:14;;;;;;;;;;;;;;;10.30;35.85;99080.41;4826995;29;20354;-65
2021/04/07 13:06:42;;;;;;;;;;;;;;;10.48;34.41;99085.34;4827048;29;19936;-65
2021/04/07 13:09:09;;;;;;;;;;;;;;;10.58;33.72;99086.94;4826936;29;19962;-65
2021/04/07 13:11:37;;;;;;;;;;;;;;;10.60;32.35;99080.13;4827614;29;19929;-65
2021/04/07 13:14:06;;;;;;;;;;;;;;;10.29;32.97;99078.75;4827028;29;19929;-65
2021/04/07 13:16:34;;;;;;;;;;;;;;;10.02;32.99;99078.94;4826956;29;19935;-66
2021/04/07 13:19:06;;;;;;;;;;;;;;;9.95;32.38;99079.84;4826886;29;19935;-65
2021/04/07 13:21:36;;;;;;;;;;;;;;;9.78;32.74;99074.03;4826938;29;19985;-65
2021/04/07 13:24:04;;;;;;;;;;;;;;;9.68;32.66;99072.41;4825935;29;19962;-65
2021/04/07 13:26:32;;;;;;;;;;;;;;;9.56;33.28;99073.34;4826504;29;19929;-65
2021/04/07 13:29:00;;;;;;;;;;;;;;;9.61;34.27;99069.06;4826645;29;19943;-65
2021/04/07 13:31:28;;;;;;;;;;;;;;;9.82;34.65;99080.78;4826623;29;19977;-65
2021/04/07 13:34:00;;;;;;;;;;;;;;;9.82;34.41;99078.25;4826456;29;19929;-65
2021/04/07 13:36:29;;;;;;;;;;;;;;;9.56;34.21;99082.66;4826580;29;19929;-66
2021/04/07 13:38:58;;;;;;;;;;;;;;;9.52;35.42;99081.00;4826460;29;20440;-65
2021/04/07 13:41:44;;;;;;;;;;;;;;;9.48;35.07;99087.00;4826619;29;19933;-65
2021/04/07 13:44:11;;;;;;;;;;;;;;;9.41;35.54;99089.56;4826552;29;19928;-66
2021/04/07 13:46:40;;;;;;;;;;;;;;;9.35;36.30;99084.50;4826471;29;20363;-65
2021/04/07 13:49:08;;;;;;;;;;;;;;;9.41;36.10;99089.56;4826551;29;20414;-66
2021/04/07 13:51:35;;;;;;;;;;;;;;;9.55;36.13;99096.28;4826307;29;20372;-66
2021/04/07 13:54:04;;;;;;;;;;;;;;;9.45;35.49;99091.22;4826379;29;19940;-66
2021/04/07 13:56:37;;;;;;;;;;;;;;;9.22;35.56;99095.59;4826177;29;19929;-65
2021/04/07 13:59:06;;;;;;;;;;;;;;;9.00;35.67;99095.72;4826337;29;19965;-66
2021/04/07 14:01:34;;;;;;;;;;;;;;;8.89;35.63;99094.88;4826178;29;19928;-65
2021/04/07 14:04:03;;;;;;;;;;;;;;;8.90;35.98;99099.97;4826241;29;19968;-65
2021/04/07 14:06:31;;;;;;;;;;;;;;;8.89;35.90;99088.13;4826140;29;20035;-66
2021/04/07 14:09:00;;;;;;;;;;;;;;;8.82;34.57;99093.22;4826335;29;19959;-65
2021/04/07 14:11:28;;;;;;;;;;;;;;;8.81;34.35;99096.59;4826178;29;19982;-67
2021/04/07 14:13:56;;;;;;;;;;;;;;;8.76;34.74;99104.25;4825987;29;19979;-66
2021/04/07 14:16:24;;;;;;;;;;;;;;;8.71;34.58;99108.50;4826044;29;19947;-65
2021/04/07 14:18:53;;;;;;;;;;;;;;;8.60;34.36;99111.09;4825875;29;19993;-67
2021/04/07 14:21:22;;;;;;;;;;;;;;;8.58;34.33;99127.19;4825966;29;19933;-65
2021/04/07 14:23:49;;;;;;;;;;;;;;;8.49;34.28;99147.56;4825818;29;19928;-66
2021/04/07 14:26:17;;;;;;;;;;;;;;;8.38;37.16;99159.44;4825822;29;19929;-66
2021/04/07 14:28:48;;;;;;;;;;;;;;;8.17;38.67;99179.72;4825794;29;19928;-66
2021/04/07 14:31:16;;;;;;;;;;;;;;;7.96;41.02;99191.59;4825799;29;19933;-66
2021/04/07 14:33:45;;;;;;;;;;;;;;;7.69;42.52;99194.06;4825811;29;19929;-66
2021/04/07 14:36:14;;;;;;;;;;;;;;;7.38;44.30;99204.94;4825607;29;20332;-65
2021/04/07 14:38:43;;;;;;;;;;;;;;;7.11;45.75;99212.41;4825466;29;19929;-66
2021/04/07 14:41:12;;;;;;;;;;;;;;;6.87;46.83;99224.94;4826232;29;19933;-66
2021/04/07 14:43:40;;;;;;;;;;;;;;;6.69;47.89;99221.44;4825545;29;19933;-67
2021/04/07 14:46:11;;;;;;;;;;;;;;;6.51;48.86;99226.38;4825660;29;19956;-66